sensor_id;sensor_type;location;lat;lon;timestamp;P1;durP1;ratioP1;P2;durP2;ratioP2
35114;SDS011;21292;52.416;13.046;2023-05-27T00:02:17;24.48;;;7.35;;
35114;SDS011;21292;52.416;13.046;2023-05-27T00:04:46;22.00;;;7.18;;
35114;SDS011;21292;52.416;13.046;2023-05-27T00:07:14;22.90;;;7.50;;
35114;SDS011;21292;52.416;13.046;2023-05-27T00:09:44;28.42;;;6.57;;
35114;SDS011;21292;52.416;13.046;2023-05-27T00:12:13;12.57;;;5.65;;
35114;SDS011;21292;52.416;13.046;2023-05-27T00:14:42;28.20;;;7.70;;
35114;SDS011;21292;52.416;13.046;2023-05-27T00:17:11;26.73;;;7.72;;
35114;SDS011;21292;52.416;13.046;2023-05-27T00:19:41;21.95;;;8.32;;
35114;SDS011;21292;52.416;13.046;2023-05-27T00:22:12;26.10;;;8.50;;
35114;SDS011;21292;52.416;13.046;2023-05-27T00:24:40;20.02;;;9.07;;
35114;SDS011;21292;52.416;13.046;2023-05-27T00:27:10;31.23;;;9.43;;
35114;SDS011;21292;52.416;13.046;2023-05-27T00:29:38;23.98;;;10.32;;
35114;SDS011;21292;52.416;13.046;2023-05-27T00:32:07;26.17;;;10.38;;
35114;SDS011;21292;52.416;13.046;2023-05-27T00:34:36;23.55;;;9.10;;
35114;SDS011;21292;52.416;13.046;2023-05-27T00:37:06;31.98;;;11.38;;
35114;SDS011;21292;52.416;13.046;2023-05-27T00:39:35;20.98;;;9.10;;
35114;SDS011;21292;52.416;13.046;2023-05-27T00:42:04;27.35;;;9.30;;
35114;SDS011;21292;52.416;13.046;2023-05-27T00:44:35;16.73;;;8.18;;
35114;SDS011;21292;52.416;13.046;2023-05-27T00:47:04;23.42;;;8.85;;
35114;SDS011;21292;52.416;13.046;2023-05-27T00:49:34;23.83;;;8.88;;
35114;SDS011;21292;52.416;13.046;2023-05-27T00:52:03;25.65;;;7.57;;
35114;SDS011;21292;52.416;13.046;2023-05-27T00:54:32;20.27;;;7.60;;
35114;SDS011;21292;52.416;13.046;2023-05-27T00:57:01;23.95;;;7.82;;
35114;SDS011;21292;52.416;13.046;2023-05-27T00:59:30;21.95;;;7.72;;
35114;SDS011;21292;52.416;13.046;2023-05-27T01:02:01;21.75;;;6.63;;
35114;SDS011;21292;52.416;13.046;2023-05-27T01:04:29;20.27;;;7.30;;
35114;SDS011;21292;52.416;13.046;2023-05-27T01:06:58;19.85;;;6.53;;
35114;SDS011;21292;52.416;13.046;2023-05-27T01:09:34;23.73;;;7.97;;
35114;SDS011;21292;52.416;13.046;2023-05-27T01:12:10;18.52;;;6.38;;
35114;SDS011;21292;52.416;13.046;2023-05-27T01:14:44;19.00;;;5.97;;
35114;SDS011;21292;52.416;13.046;2023-05-27T01:17:15;24.50;;;6.90;;
35114;SDS011;21292;52.416;13.046;2023-05-27T01:19:45;22.80;;;6.25;;
35114;SDS011;21292;52.416;13.046;2023-05-27T01:22:15;22.67;;;6.78;;
35114;SDS011;21292;52.416;13.046;2023-05-27T01:24:47;18.27;;;7.25;;
35114;SDS011;21292;52.416;13.046;2023-05-27T01:27:17;23.38;;;7.10;;
35114;SDS011;21292;52.416;13.046;2023-05-27T01:29:46;14.65;;;6.00;;
35114;SDS011;21292;52.416;13.046;2023-05-27T01:32:15;18.77;;;6.50;;
35114;SDS011;21292;52.416;13.046;2023-05-27T01:34:47;15.40;;;7.38;;
35114;SDS011;21292;52.416;13.046;2023-05-27T01:37:19;22.35;;;6.35;;
35114;SDS011;21292;52.416;13.046;2023-05-27T01:39:51;17.15;;;6.47;;
35114;SDS011;21292;52.416;13.046;2023-05-27T01:42:21;18.25;;;6.55;;
35114;SDS011;21292;52.416;13.046;2023-05-27T01:44:52;30.10;;;8.13;;
35114;SDS011;21292;52.416;13.046;2023-05-27T01:47:23;22.48;;;7.70;;
35114;SDS011;21292;52.416;13.046;2023-05-27T01:49:51;26.20;;;7.53;;
35114;SDS011;21292;52.416;13.046;2023-05-27T01:52:19;21.50;;;6.57;;
35114;SDS011;21292;52.416;13.046;2023-05-27T01:54:48;19.08;;;5.93;;
35114;SDS011;21292;52.416;13.046;2023-05-27T01:57:18;18.13;;;8.75;;
35114;SDS011;21292;52.416;13.046;2023-05-27T01:59:46;31.35;;;10.45;;
35114;SDS011;21292;52.416;13.046;2023-05-27T02:02:18;22.15;;;8.98;;
35114;SDS011;21292;52.416;13.046;2023-05-27T02:04:47;19.52;;;8.07;;
35114;SDS011;21292;52.416;13.046;2023-05-27T02:07:16;19.35;;;8.10;;
35114;SDS011;21292;52.416;13.046;2023-05-27T02:09:45;21.23;;;7.03;;
35114;SDS011;21292;52.416;13.046;2023-05-27T02:12:14;18.48;;;6.75;;
35114;SDS011;21292;52.416;13.046;2023-05-27T02:14:44;19.60;;;7.15;;
35114;SDS011;21292;52.416;13.046;2023-05-27T02:17:13;21.00;;;6.88;;
35114;SDS011;21292;52.416;13.046;2023-05-27T02:19:43;15.32;;;6.47;;
35114;SDS011;21292;52.416;13.046;2023-05-27T02:22:12;16.95;;;5.88;;
35114;SDS011;21292;52.416;13.046;2023-05-27T02:24:43;18.60;;;6.47;;
35114;SDS011;21292;52.416;13.046;2023-05-27T02:27:12;21.08;;;6.32;;
35114;SDS011;21292;52.416;13.046;2023-05-27T02:29:40;19.42;;;6.45;;
35114;SDS011;21292;52.416;13.046;2023-05-27T02:32:10;15.43;;;6.35;;
35114;SDS011;21292;52.416;13.046;2023-05-27T02:34:38;19.63;;;7.40;;
35114;SDS011;21292;52.416;13.046;2023-05-27T02:37:07;21.00;;;7.32;;
35114;SDS011;21292;52.416;13.046;2023-05-27T02:39:36;17.88;;;6.93;;
35114;SDS011;21292;52.416;13.046;2023-05-27T02:42:04;13.55;;;6.18;;
35114;SDS011;21292;52.416;13.046;2023-05-27T02:44:36;18.60;;;6.78;;
35114;SDS011;21292;52.416;13.046;2023-05-27T02:47:05;20.17;;;7.53;;
35114;SDS011;21292;52.416;13.046;2023-05-27T02:49:34;20.27;;;7.15;;
35114;SDS011;21292;52.416;13.046;2023-05-27T02:52:03;23.30;;;6.47;;
35114;SDS011;21292;52.416;13.046;2023-05-27T02:54:32;16.48;;;6.63;;
35114;SDS011;21292;52.416;13.046;2023-05-27T02:57:01;17.38;;;6.43;;
35114;SDS011;21292;52.416;13.046;2023-05-27T02:59:29;18.17;;;7.95;;
35114;SDS011;21292;52.416;13.046;2023-05-27T03:01:57;18.25;;;6.50;;
35114;SDS011;21292;52.416;13.046;2023-05-27T03:04:26;19.27;;;7.30;;
35114;SDS011;21292;52.416;13.046;2023-05-27T03:06:56;19.27;;;7.22;;
35114;SDS011;21292;52.416;13.046;2023-05-27T03:09:25;15.55;;;7.47;;
35114;SDS011;21292;52.416;13.046;2023-05-27T03:11:53;13.02;;;6.15;;
35114;SDS011;21292;52.416;13.046;2023-05-27T03:14:22;17.88;;;6.57;;
35114;SDS011;21292;52.416;13.046;2023-05-27T03:16:53;21.45;;;9.02;;
35114;SDS011;21292;52.416;13.046;2023-05-27T03:19:22;22.63;;;9.50;;
35114;SDS011;21292;52.416;13.046;2023-05-27T03:21:51;21.35;;;9.68;;
35114;SDS011;21292;52.416;13.046;2023-05-27T03:24:24;22.65;;;10.38;;
35114;SDS011;21292;52.416;13.046;2023-05-27T03:26:54;22.05;;;12.07;;
35114;SDS011;21292;52.416;13.046;2023-05-27T03:29:23;24.58;;;11.88;;
35114;SDS011;21292;52.416;13.046;2023-05-27T03:31:51;31.38;;;12.45;;
35114;SDS011;21292;52.416;13.046;2023-05-27T03:34:20;26.33;;;13.13;;
35114;SDS011;21292;52.416;13.046;2023-05-27T03:36:48;23.73;;;13.07;;
35114;SDS011;21292;52.416;13.046;2023-05-27T03:39:19;29.75;;;12.30;;
35114;SDS011;21292;52.416;13.046;2023-05-27T03:41:52;26.75;;;11.68;;
35114;SDS011;21292;52.416;13.046;2023-05-27T03:44:23;24.45;;;10.95;;
35114;SDS011;21292;52.416;13.046;2023-05-27T03:46:52;20.17;;;10.02;;
35114;SDS011;21292;52.416;13.046;2023-05-27T03:49:20;19.88;;;9.63;;
35114;SDS011;21292;52.416;13.046;2023-05-27T03:51:49;16.67;;;8.00;;
35114;SDS011;21292;52.416;13.046;2023-05-27T03:54:18;18.83;;;7.75;;
35114;SDS011;21292;52.416;13.046;2023-05-27T03:56:48;16.33;;;7.97;;
35114;SDS011;21292;52.416;13.046;2023-05-27T03:59:18;22.05;;;10.10;;
35114;SDS011;21292;52.416;13.046;2023-05-27T04:01:46;23.65;;;10.85;;
35114;SDS011;21292;52.416;13.046;2023-05-27T04:04:15;21.85;;;8.98;;
35114;SDS011;21292;52.416;13.046;2023-05-27T04:06:45;19.63;;;8.02;;
35114;SDS011;21292;52.416;13.046;2023-05-27T04:09:13;21.92;;;8.10;;
35114;SDS011;21292;52.416;13.046;2023-05-27T04:11:43;14.57;;;7.90;;
35114;SDS011;21292;52.416;13.046;2023-05-27T04:14:14;17.38;;;6.53;;
35114;SDS011;21292;52.416;13.046;2023-05-27T04:16:42;17.90;;;6.40;;
35114;SDS011;21292;52.416;13.046;2023-05-27T04:19:11;21.23;;;8.50;;
35114;SDS011;21292;52.416;13.046;2023-05-27T04:21:40;18.92;;;8.23;;
35114;SDS011;21292;52.416;13.046;2023-05-27T04:24:09;15.18;;;6.45;;
35114;SDS011;21292;52.416;13.046;2023-05-27T04:26:38;16.73;;;7.20;;
35114;SDS011;21292;52.416;13.046;2023-05-27T04:29:08;16.70;;;6.28;;
35114;SDS011;21292;52.416;13.046;2023-05-27T04:31:46;15.90;;;6.68;;
35114;SDS011;21292;52.416;13.046;2023-05-27T04:34:15;21.73;;;7.18;;
35114;SDS011;21292;52.416;13.046;2023-05-27T04:36:45;18.27;;;9.55;;
35114;SDS011;21292;52.416;13.046;2023-05-27T04:39:16;21.50;;;7.75;;
35114;SDS011;21292;52.416;13.046;2023-05-27T04:41:45;14.25;;;5.78;;
35114;SDS011;21292;52.416;13.046;2023-05-27T04:44:16;18.40;;;7.35;;
35114;SDS011;21292;52.416;13.046;2023-05-27T04:46:46;21.60;;;7.93;;
35114;SDS011;21292;52.416;13.046;2023-05-27T04:49:15;20.42;;;9.48;;
35114;SDS011;21292;52.416;13.046;2023-05-27T04:51:44;18.27;;;7.50;;
35114;SDS011;21292;52.416;13.046;2023-05-27T04:54:14;15.13;;;7.68;;
35114;SDS011;21292;52.416;13.046;2023-05-27T04:56:44;17.10;;;6.43;;
35114;SDS011;21292;52.416;13.046;2023-05-27T04:59:13;12.93;;;5.30;;
35114;SDS011;21292;52.416;13.046;2023-05-27T05:01:46;16.30;;;5.32;;
35114;SDS011;21292;52.416;13.046;2023-05-27T05:04:37;12.35;;;4.72;;
35114;SDS011;21292;52.416;13.046;2023-05-27T05:07:05;16.35;;;5.70;;
35114;SDS011;21292;52.416;13.046;2023-05-27T05:09:34;13.85;;;6.10;;
35114;SDS011;21292;52.416;13.046;2023-05-27T05:12:04;18.35;;;6.30;;
35114;SDS011;21292;52.416;13.046;2023-05-27T05:14:34;13.98;;;4.97;;
35114;SDS011;21292;52.416;13.046;2023-05-27T05:17:04;17.00;;;5.85;;
35114;SDS011;21292;52.416;13.046;2023-05-27T05:22:03;14.70;;;6.10;;
35114;SDS011;21292;52.416;13.046;2023-05-27T05:24:32;15.55;;;5.95;;
35114;SDS011;21292;52.416;13.046;2023-05-27T05:27:01;23.83;;;7.65;;
35114;SDS011;21292;52.416;13.046;2023-05-27T05:29:33;20.63;;;8.18;;
35114;SDS011;21292;52.416;13.046;2023-05-27T05:32:06;15.02;;;7.85;;
35114;SDS011;21292;52.416;13.046;2023-05-27T05:34:38;17.35;;;9.35;;
35114;SDS011;21292;52.416;13.046;2023-05-27T05:37:07;18.10;;;6.97;;
35114;SDS011;21292;52.416;13.046;2023-05-27T05:39:37;22.27;;;7.43;;
35114;SDS011;21292;52.416;13.046;2023-05-27T05:42:06;17.02;;;7.90;;
35114;SDS011;21292;52.416;13.046;2023-05-27T05:44:34;21.40;;;6.50;;
35114;SDS011;21292;52.416;13.046;2023-05-27T05:47:03;22.88;;;6.80;;
35114;SDS011;21292;52.416;13.046;2023-05-27T05:49:34;11.93;;;4.93;;
35114;SDS011;21292;52.416;13.046;2023-05-27T05:52:02;14.10;;;5.85;;
35114;SDS011;21292;52.416;13.046;2023-05-27T05:54:30;18.13;;;6.13;;
35114;SDS011;21292;52.416;13.046;2023-05-27T05:57:00;15.00;;;5.28;;
35114;SDS011;21292;52.416;13.046;2023-05-27T05:59:31;16.85;;;5.45;;
35114;SDS011;21292;52.416;13.046;2023-05-27T06:02:01;19.40;;;5.50;;
35114;SDS011;21292;52.416;13.046;2023-05-27T06:04:31;13.10;;;5.53;;
35114;SDS011;21292;52.416;13.046;2023-05-27T06:07:00;13.20;;;4.70;;
35114;SDS011;21292;52.416;13.046;2023-05-27T06:09:29;17.92;;;6.10;;
35114;SDS011;21292;52.416;13.046;2023-05-27T06:11:58;19.38;;;5.38;;
35114;SDS011;21292;52.416;13.046;2023-05-27T06:14:27;14.40;;;4.93;;
35114;SDS011;21292;52.416;13.046;2023-05-27T06:16:55;18.00;;;4.63;;
35114;SDS011;21292;52.416;13.046;2023-05-27T06:19:24;12.52;;;5.20;;
35114;SDS011;21292;52.416;13.046;2023-05-27T06:21:54;14.63;;;5.55;;
35114;SDS011;21292;52.416;13.046;2023-05-27T06:24:26;17.33;;;7.70;;
35114;SDS011;21292;52.416;13.046;2023-05-27T06:26:54;14.32;;;5.22;;
35114;SDS011;21292;52.416;13.046;2023-05-27T06:29:23;9.57;;;3.25;;
35114;SDS011;21292;52.416;13.046;2023-05-27T06:31:51;14.43;;;3.75;;
35114;SDS011;21292;52.416;13.046;2023-05-27T06:34:22;10.68;;;3.22;;
35114;SDS011;21292;52.416;13.046;2023-05-27T06:36:50;13.02;;;4.20;;
35114;SDS011;21292;52.416;13.046;2023-05-27T06:39:19;11.13;;;3.63;;
35114;SDS011;21292;52.416;13.046;2023-05-27T06:41:50;8.20;;;2.38;;
35114;SDS011;21292;52.416;13.046;2023-05-27T06:44:19;10.25;;;2.83;;
35114;SDS011;21292;52.416;13.046;2023-05-27T06:46:47;9.05;;;2.47;;
35114;SDS011;21292;52.416;13.046;2023-05-27T06:49:19;7.03;;;2.53;;
35114;SDS011;21292;52.416;13.046;2023-05-27T06:51:47;9.55;;;2.80;;
35114;SDS011;21292;52.416;13.046;2023-05-27T06:54:16;9.70;;;2.83;;
35114;SDS011;21292;52.416;13.046;2023-05-27T06:56:45;11.23;;;3.05;;
35114;SDS011;21292;52.416;13.046;2023-05-27T06:59:32;6.00;;;2.33;;
35114;SDS011;21292;52.416;13.046;2023-05-27T07:02:01;7.82;;;2.60;;
35114;SDS011;21292;52.416;13.046;2023-05-27T07:04:30;10.15;;;2.40;;
35114;SDS011;21292;52.416;13.046;2023-05-27T07:07:00;6.55;;;2.67;;
35114;SDS011;21292;52.416;13.046;2023-05-27T07:09:28;4.05;;;1.42;;
35114;SDS011;21292;52.416;13.046;2023-05-27T07:11:56;6.15;;;2.13;;
35114;SDS011;21292;52.416;13.046;2023-05-27T07:14:27;5.10;;;2.03;;
35114;SDS011;21292;52.416;13.046;2023-05-27T07:16:57;5.88;;;2.33;;
35114;SDS011;21292;52.416;13.046;2023-05-27T07:19:25;6.95;;;2.00;;
35114;SDS011;21292;52.416;13.046;2023-05-27T07:21:54;6.15;;;1.83;;
35114;SDS011;21292;52.416;13.046;2023-05-27T07:24:23;3.95;;;2.10;;
35114;SDS011;21292;52.416;13.046;2023-05-27T07:26:51;5.88;;;2.22;;
35114;SDS011;21292;52.416;13.046;2023-05-27T07:29:20;7.43;;;2.42;;
35114;SDS011;21292;52.416;13.046;2023-05-27T07:31:49;5.65;;;1.80;;
35114;SDS011;21292;52.416;13.046;2023-05-27T07:34:18;4.05;;;1.60;;
35114;SDS011;21292;52.416;13.046;2023-05-27T07:36:47;5.05;;;2.03;;
35114;SDS011;21292;52.416;13.046;2023-05-27T07:39:16;5.72;;;1.90;;
35114;SDS011;21292;52.416;13.046;2023-05-27T07:41:46;3.15;;;1.98;;
35114;SDS011;21292;52.416;13.046;2023-05-27T07:44:17;3.40;;;1.70;;
35114;SDS011;21292;52.416;13.046;2023-05-27T07:46:46;5.03;;;1.77;;
35114;SDS011;21292;52.416;13.046;2023-05-27T07:49:14;4.45;;;1.48;;
35114;SDS011;21292;52.416;13.046;2023-05-27T07:51:46;4.82;;;1.77;;
35114;SDS011;21292;52.416;13.046;2023-05-27T07:54:14;5.22;;;2.05;;
35114;SDS011;21292;52.416;13.046;2023-05-27T07:56:44;6.50;;;2.53;;
35114;SDS011;21292;52.416;13.046;2023-05-27T07:59:12;5.60;;;2.03;;
35114;SDS011;21292;52.416;13.046;2023-05-27T08:01:43;5.93;;;1.88;;
35114;SDS011;21292;52.416;13.046;2023-05-27T08:04:11;3.17;;;1.98;;
35114;SDS011;21292;52.416;13.046;2023-05-27T08:06:52;3.50;;;1.55;;
35114;SDS011;21292;52.416;13.046;2023-05-27T08:09:20;2.10;;;1.30;;
35114;SDS011;21292;52.416;13.046;2023-05-27T08:11:50;7.88;;;2.33;;
35114;SDS011;21292;52.416;13.046;2023-05-27T08:14:18;5.25;;;1.60;;
35114;SDS011;21292;52.416;13.046;2023-05-27T08:16:47;2.38;;;1.40;;
35114;SDS011;21292;52.416;13.046;2023-05-27T08:19:16;4.38;;;1.50;;
35114;SDS011;21292;52.416;13.046;2023-05-27T08:21:45;4.03;;;1.65;;
35114;SDS011;21292;52.416;13.046;2023-05-27T08:24:16;2.97;;;1.48;;
35114;SDS011;21292;52.416;13.046;2023-05-27T08:26:48;2.60;;;1.38;;
35114;SDS011;21292;52.416;13.046;2023-05-27T08:29:17;3.03;;;1.30;;
35114;SDS011;21292;52.416;13.046;2023-05-27T08:31:45;2.58;;;1.20;;
35114;SDS011;21292;52.416;13.046;2023-05-27T08:34:14;2.42;;;1.33;;
35114;SDS011;21292;52.416;13.046;2023-05-27T08:36:42;4.00;;;1.60;;
35114;SDS011;21292;52.416;13.046;2023-05-27T08:39:11;3.05;;;1.60;;
35114;SDS011;21292;52.416;13.046;2023-05-27T08:41:44;3.53;;;1.50;;
35114;SDS011;21292;52.416;13.046;2023-05-27T08:44:12;4.32;;;1.52;;
35114;SDS011;21292;52.416;13.046;2023-05-27T08:46:44;3.05;;;1.20;;
35114;SDS011;21292;52.416;13.046;2023-05-27T08:49:13;2.70;;;1.15;;
35114;SDS011;21292;52.416;13.046;2023-05-27T08:51:42;3.15;;;1.25;;
35114;SDS011;21292;52.416;13.046;2023-05-27T08:54:13;5.63;;;1.65;;
35114;SDS011;21292;52.416;13.046;2023-05-27T08:56:45;2.65;;;1.33;;
35114;SDS011;21292;52.416;13.046;2023-05-27T08:59:14;5.10;;;1.60;;
35114;SDS011;21292;52.416;13.046;2023-05-27T09:01:43;2.78;;;1.30;;
35114;SDS011;21292;52.416;13.046;2023-05-27T09:04:12;2.97;;;1.25;;
35114;SDS011;21292;52.416;13.046;2023-05-27T09:06:41;3.53;;;1.52;;
35114;SDS011;21292;52.416;13.046;2023-05-27T09:09:13;2.42;;;1.33;;
35114;SDS011;21292;52.416;13.046;2023-05-27T09:11:43;2.38;;;1.30;;
35114;SDS011;21292;52.416;13.046;2023-05-27T09:14:19;3.78;;;1.55;;
35114;SDS011;21292;52.416;13.046;2023-05-27T09:16:48;4.13;;;1.35;;
35114;SDS011;21292;52.416;13.046;2023-05-27T09:19:16;4.28;;;1.50;;
35114;SDS011;21292;52.416;13.046;2023-05-27T09:21:45;5.22;;;1.77;;
35114;SDS011;21292;52.416;13.046;2023-05-27T09:24:14;2.22;;;1.48;;
35114;SDS011;21292;52.416;13.046;2023-05-27T09:26:43;3.45;;;1.55;;
35114;SDS011;21292;52.416;13.046;2023-05-27T09:29:13;5.47;;;1.50;;
35114;SDS011;21292;52.416;13.046;2023-05-27T09:31:41;2.20;;;1.40;;
35114;SDS011;21292;52.416;13.046;2023-05-27T09:34:12;1.83;;;1.20;;
35114;SDS011;21292;52.416;13.046;2023-05-27T09:36:41;3.15;;;1.67;;
35114;SDS011;21292;52.416;13.046;2023-05-27T09:39:10;3.40;;;1.40;;
35114;SDS011;21292;52.416;13.046;2023-05-27T09:41:39;3.63;;;1.42;;
35114;SDS011;21292;52.416;13.046;2023-05-27T09:44:08;2.05;;;1.10;;
35114;SDS011;21292;52.416;13.046;2023-05-27T09:46:38;3.28;;;1.40;;
35114;SDS011;21292;52.416;13.046;2023-05-27T09:49:10;3.70;;;1.48;;
35114;SDS011;21292;52.416;13.046;2023-05-27T09:51:40;5.28;;;1.52;;
35114;SDS011;21292;52.416;13.046;2023-05-27T09:54:09;3.50;;;1.65;;
35114;SDS011;21292;52.416;13.046;2023-05-27T09:56:40;1.75;;;1.20;;
35114;SDS011;21292;52.416;13.046;2023-05-27T09:59:08;3.42;;;1.17;;
35114;SDS011;21292;52.416;13.046;2023-05-27T10:01:38;3.70;;;1.40;;
35114;SDS011;21292;52.416;13.046;2023-05-27T10:04:09;2.88;;;1.42;;
35114;SDS011;21292;52.416;13.046;2023-05-27T10:06:38;2.78;;;1.38;;
35114;SDS011;21292;52.416;13.046;2023-05-27T10:09:08;4.32;;;1.48;;
35114;SDS011;21292;52.416;13.046;2023-05-27T10:11:36;3.03;;;1.40;;
35114;SDS011;21292;52.416;13.046;2023-05-27T10:14:05;3.17;;;1.65;;
35114;SDS011;21292;52.416;13.046;2023-05-27T10:16:34;3.15;;;1.45;;
35114;SDS011;21292;52.416;13.046;2023-05-27T10:19:09;2.45;;;1.60;;
35114;SDS011;21292;52.416;13.046;2023-05-27T10:21:41;1.70;;;1.42;;
35114;SDS011;21292;52.416;13.046;2023-05-27T10:24:11;2.47;;;1.33;;
35114;SDS011;21292;52.416;13.046;2023-05-27T10:26:40;2.25;;;1.42;;
35114;SDS011;21292;52.416;13.046;2023-05-27T10:29:11;3.00;;;1.75;;
35114;SDS011;21292;52.416;13.046;2023-05-27T10:31:44;3.97;;;1.60;;
35114;SDS011;21292;52.416;13.046;2023-05-27T10:34:20;1.85;;;1.40;;
35114;SDS011;21292;52.416;13.046;2023-05-27T10:36:57;1.63;;;1.38;;
35114;SDS011;21292;52.416;13.046;2023-05-27T10:39:29;5.30;;;1.15;;
35114;SDS011;21292;52.416;13.046;2023-05-27T10:41:58;1.77;;;1.20;;
35114;SDS011;21292;52.416;13.046;2023-05-27T10:44:31;4.35;;;1.70;;
35114;SDS011;21292;52.416;13.046;2023-05-27T10:47:02;3.28;;;1.30;;
35114;SDS011;21292;52.416;13.046;2023-05-27T10:49:34;2.97;;;1.30;;
35114;SDS011;21292;52.416;13.046;2023-05-27T10:52:09;3.80;;;1.65;;
35114;SDS011;21292;52.416;13.046;2023-05-27T10:54:40;2.67;;;1.48;;
35114;SDS011;21292;52.416;13.046;2023-05-27T10:57:14;4.90;;;1.70;;
35114;SDS011;21292;52.416;13.046;2023-05-27T10:59:45;4.07;;;1.70;;
35114;SDS011;21292;52.416;13.046;2023-05-27T11:02:17;3.83;;;1.95;;
35114;SDS011;21292;52.416;13.046;2023-05-27T11:04:49;5.43;;;2.03;;
35114;SDS011;21292;52.416;13.046;2023-05-27T11:07:21;4.28;;;2.17;;
35114;SDS011;21292;52.416;13.046;2023-05-27T11:09:54;3.13;;;1.52;;
35114;SDS011;21292;52.416;13.046;2023-05-27T11:12:23;2.90;;;2.10;;
35114;SDS011;21292;52.416;13.046;2023-05-27T11:14:53;2.63;;;1.55;;
35114;SDS011;21292;52.416;13.046;2023-05-27T11:17:23;2.97;;;1.83;;
35114;SDS011;21292;52.416;13.046;2023-05-27T11:19:55;1.85;;;1.40;;
35114;SDS011;21292;52.416;13.046;2023-05-27T11:24:58;4.32;;;2.00;;
35114;SDS011;21292;52.416;13.046;2023-05-27T11:27:37;5.43;;;2.22;;
35114;SDS011;21292;52.416;13.046;2023-05-27T11:30:07;7.95;;;2.22;;
35114;SDS011;21292;52.416;13.046;2023-05-27T11:32:40;3.13;;;1.10;;
35114;SDS011;21292;52.416;13.046;2023-05-27T11:35:17;3.20;;;1.42;;
35114;SDS011;21292;52.416;13.046;2023-05-27T11:37:46;1.83;;;1.20;;
35114;SDS011;21292;52.416;13.046;2023-05-27T11:40:15;2.22;;;1.58;;
35114;SDS011;21292;52.416;13.046;2023-05-27T11:42:44;4.30;;;1.88;;
35114;SDS011;21292;52.416;13.046;2023-05-27T11:45:18;4.50;;;1.60;;
35114;SDS011;21292;52.416;13.046;2023-05-27T11:47:47;1.95;;;1.50;;
35114;SDS011;21292;52.416;13.046;2023-05-27T11:50:22;2.33;;;1.42;;
35114;SDS011;21292;52.416;13.046;2023-05-27T11:52:55;2.45;;;1.30;;
35114;SDS011;21292;52.416;13.046;2023-05-27T11:55:25;2.85;;;1.67;;
35114;SDS011;21292;52.416;13.046;2023-05-27T11:57:54;1.88;;;1.30;;
35114;SDS011;21292;52.416;13.046;2023-05-27T12:00:22;2.35;;;1.60;;
35114;SDS011;21292;52.416;13.046;2023-05-27T12:02:51;3.17;;;1.67;;
35114;SDS011;21292;52.416;13.046;2023-05-27T12:05:22;2.47;;;1.38;;
35114;SDS011;21292;52.416;13.046;2023-05-27T12:08:01;2.58;;;1.17;;
35114;SDS011;21292;52.416;13.046;2023-05-27T12:10:30;3.00;;;1.50;;
35114;SDS011;21292;52.416;13.046;2023-05-27T12:13:02;3.25;;;1.50;;
35114;SDS011;21292;52.416;13.046;2023-05-27T12:15:33;2.60;;;1.38;;
35114;SDS011;21292;52.416;13.046;2023-05-27T12:18:02;1.40;;;1.15;;
35114;SDS011;21292;52.416;13.046;2023-05-27T12:20:32;2.42;;;1.50;;
35114;SDS011;21292;52.416;13.046;2023-05-27T12:23:01;2.17;;;1.08;;
35114;SDS011;21292;52.416;13.046;2023-05-27T12:25:29;3.30;;;1.63;;
35114;SDS011;21292;52.416;13.046;2023-05-27T12:27:58;2.65;;;1.27;;
35114;SDS011;21292;52.416;13.046;2023-05-27T12:30:26;3.38;;;1.38;;
35114;SDS011;21292;52.416;13.046;2023-05-27T12:32:57;3.00;;;1.35;;
35114;SDS011;21292;52.416;13.046;2023-05-27T12:35:26;3.63;;;1.42;;
35114;SDS011;21292;52.416;13.046;2023-05-27T12:37:56;5.22;;;1.70;;
35114;SDS011;21292;52.416;13.046;2023-05-27T12:40:25;2.20;;;1.33;;
35114;SDS011;21292;52.416;13.046;2023-05-27T12:42:54;2.00;;;1.60;;
35114;SDS011;21292;52.416;13.046;2023-05-27T12:45:24;5.03;;;1.50;;
35114;SDS011;21292;52.416;13.046;2023-05-27T12:47:53;2.22;;;1.77;;
35114;SDS011;21292;52.416;13.046;2023-05-27T12:50:21;2.00;;;1.50;;
35114;SDS011;21292;52.416;13.046;2023-05-27T12:52:50;4.40;;;1.75;;
35114;SDS011;21292;52.416;13.046;2023-05-27T12:55:21;2.67;;;1.33;;
35114;SDS011;21292;52.416;13.046;2023-05-27T12:57:51;2.13;;;1.75;;
35114;SDS011;21292;52.416;13.046;2023-05-27T13:00:22;2.67;;;1.90;;
35114;SDS011;21292;52.416;13.046;2023-05-27T13:02:51;2.92;;;2.00;;
35114;SDS011;21292;52.416;13.046;2023-05-27T13:05:22;3.25;;;1.73;;
35114;SDS011;21292;52.416;13.046;2023-05-27T13:07:54;5.78;;;1.73;;
35114;SDS011;21292;52.416;13.046;2023-05-27T13:10:27;2.08;;;1.30;;
35114;SDS011;21292;52.416;13.046;2023-05-27T13:12:57;2.85;;;1.60;;
35114;SDS011;21292;52.416;13.046;2023-05-27T13:15:29;2.88;;;1.73;;
35114;SDS011;21292;52.416;13.046;2023-05-27T13:17:58;5.30;;;2.05;;
35114;SDS011;21292;52.416;13.046;2023-05-27T13:20:27;2.45;;;1.67;;
35114;SDS011;21292;52.416;13.046;2023-05-27T13:22:57;4.10;;;1.75;;
35114;SDS011;21292;52.416;13.046;2023-05-27T13:25:30;3.00;;;1.73;;
35114;SDS011;21292;52.416;13.046;2023-05-27T13:27:59;2.70;;;1.50;;
35114;SDS011;21292;52.416;13.046;2023-05-27T13:30:29;2.08;;;1.40;;
35114;SDS011;21292;52.416;13.046;2023-05-27T13:32:57;5.63;;;1.73;;
35114;SDS011;21292;52.416;13.046;2023-05-27T13:35:27;4.60;;;1.73;;
35114;SDS011;21292;52.416;13.046;2023-05-27T13:37:57;4.00;;;1.92;;
35114;SDS011;21292;52.416;13.046;2023-05-27T13:40:30;2.50;;;1.85;;
35114;SDS011;21292;52.416;13.046;2023-05-27T13:42:59;2.72;;;1.77;;
35114;SDS011;21292;52.416;13.046;2023-05-27T13:45:28;4.68;;;1.90;;
35114;SDS011;21292;52.416;13.046;2023-05-27T13:50:29;2.08;;;1.73;;
35114;SDS011;21292;52.416;13.046;2023-05-27T13:53:03;5.57;;;1.92;;
35114;SDS011;21292;52.416;13.046;2023-05-27T13:55:38;6.35;;;1.95;;
35114;SDS011;21292;52.416;13.046;2023-05-27T13:58:07;5.47;;;2.40;;
35114;SDS011;21292;52.416;13.046;2023-05-27T14:00:35;4.40;;;1.98;;
35114;SDS011;21292;52.416;13.046;2023-05-27T14:03:06;3.33;;;1.73;;
35114;SDS011;21292;52.416;13.046;2023-05-27T14:05:35;2.58;;;1.80;;
35114;SDS011;21292;52.416;13.046;2023-05-27T14:08:03;3.15;;;2.13;;
35114;SDS011;21292;52.416;13.046;2023-05-27T14:10:32;4.53;;;1.80;;
35114;SDS011;21292;52.416;13.046;2023-05-27T14:13:02;2.80;;;1.73;;
35114;SDS011;21292;52.416;13.046;2023-05-27T14:15:31;4.25;;;1.77;;
35114;SDS011;21292;52.416;13.046;2023-05-27T14:18:01;4.22;;;1.98;;
35114;SDS011;21292;52.416;13.046;2023-05-27T14:20:32;5.43;;;2.13;;
35114;SDS011;21292;52.416;13.046;2023-05-27T14:23:01;2.88;;;1.98;;
35114;SDS011;21292;52.416;13.046;2023-05-27T14:25:32;3.80;;;2.25;;
35114;SDS011;21292;52.416;13.046;2023-05-27T14:28:02;3.55;;;2.40;;
35114;SDS011;21292;52.416;13.046;2023-05-27T14:30:33;4.75;;;2.38;;
35114;SDS011;21292;52.416;13.046;2023-05-27T14:33:03;2.05;;;1.80;;
35114;SDS011;21292;52.416;13.046;2023-05-27T14:35:34;3.47;;;2.05;;
35114;SDS011;21292;52.416;13.046;2023-05-27T14:38:03;2.85;;;1.90;;
35114;SDS011;21292;52.416;13.046;2023-05-27T14:40:33;4.88;;;1.80;;
35114;SDS011;21292;52.416;13.046;2023-05-27T14:43:06;2.97;;;1.92;;
35114;SDS011;21292;52.416;13.046;2023-05-27T14:45:34;3.40;;;2.47;;
35114;SDS011;21292;52.416;13.046;2023-05-27T14:48:03;3.80;;;2.20;;
35114;SDS011;21292;52.416;13.046;2023-05-27T14:50:32;3.40;;;2.00;;
35114;SDS011;21292;52.416;13.046;2023-05-27T14:53:02;4.22;;;2.40;;